createdAt,value
2019-01-31T00:01:40.089Z,-3.30
2019-01-31T00:04:26.852Z,-3.40
2019-01-31T00:06:59.891Z,-3.40
2019-01-31T00:09:36.218Z,-3.40
2019-01-31T00:12:09.120Z,-3.40
2019-01-31T00:14:44.679Z,-3.40
2019-01-31T00:17:29.813Z,-3.40
2019-01-31T00:20:09.310Z,-3.40
2019-01-31T00:22:39.404Z,-3.40
2019-01-31T00:25:27.822Z,-3.50
2019-01-31T00:28:15.986Z,-3.50
2019-01-31T00:30:58.041Z,-3.60
2019-01-31T00:33:28.160Z,-3.60
2019-01-31T00:36:01.365Z,-3.60
2019-01-31T00:38:43.309Z,-3.60
2019-01-31T00:41:13.381Z,-3.60
2019-01-31T00:43:52.108Z,-3.60
2019-01-31T00:46:43.684Z,-3.60
2019-01-31T00:49:13.815Z,-3.70
2019-01-31T00:51:50.267Z,-3.70
2019-01-31T00:54:26.439Z,-3.70
2019-01-31T00:57:17.834Z,-3.60
2019-01-31T00:59:57.317Z,-3.70
2019-01-31T01:02:30.082Z,-3.80
2019-01-31T01:05:19.608Z,-3.90
2019-01-31T01:08:09.317Z,-3.90
2019-01-31T01:10:45.204Z,-4.00
2019-01-31T01:13:35.473Z,-4.00
2019-01-31T01:16:18.214Z,-4.00
2019-01-31T01:18:54.342Z,-4.10
2019-01-31T01:21:41.944Z,-4.10
2019-01-31T01:24:30.233Z,-4.20
2019-01-31T01:27:12.409Z,-4.20
2019-01-31T01:29:54.496Z,-4.30
2019-01-31T01:32:24.635Z,-4.20
2019-01-31T01:35:06.937Z,-4.20
2019-01-31T01:38:04.731Z,-4.20
2019-01-31T01:41:09.695Z,-4.20
2019-01-31T01:43:39.792Z,-4.30
2019-01-31T01:46:39.071Z,-4.40
2019-01-31T01:49:30.346Z,-4.50
2019-01-31T01:52:06.409Z,-4.50
2019-01-31T01:54:45.575Z,-4.60
2019-01-31T01:57:32.467Z,-4.50
2019-01-31T02:00:22.488Z,-4.50
2019-01-31T02:02:55.137Z,-4.60
2019-01-31T02:05:34.249Z,-4.60
2019-01-31T02:08:10.339Z,-4.60
2019-01-31T02:10:49.596Z,-4.70
2019-01-31T02:13:36.260Z,-4.80
2019-01-31T02:16:11.768Z,-4.80
2019-01-31T02:18:48.039Z,-4.80
2019-01-31T02:21:26.761Z,-4.80
2019-01-31T02:24:05.767Z,-4.80
2019-01-31T02:26:52.623Z,-4.90
2019-01-31T02:29:39.423Z,-4.90
2019-01-31T02:32:33.926Z,-4.90
2019-01-31T02:35:06.979Z,-4.90
2019-01-31T02:37:43.106Z,-4.90
2019-01-31T02:40:19.038Z,-5.10
2019-01-31T02:42:49.105Z,-5.10
2019-01-31T02:45:19.543Z,-5.00
2019-01-31T02:47:58.854Z,-5.10
2019-01-31T02:50:28.946Z,-5.10
2019-01-31T02:52:59.018Z,-5.10
2019-01-31T02:55:29.101Z,-5.10
2019-01-31T02:58:02.243Z,-5.10
2019-01-31T03:00:41.324Z,-5.10
2019-01-31T03:03:20.498Z,-5.10
2019-01-31T03:05:59.945Z,-5.10
2019-01-31T03:08:29.999Z,-5.20
2019-01-31T03:11:15.102Z,-5.30
2019-01-31T03:13:45.146Z,-5.30
2019-01-31T03:16:49.308Z,-5.30
2019-01-31T03:19:25.342Z,-5.40
2019-01-31T03:21:58.411Z,-5.50
2019-01-31T03:24:46.074Z,-5.40
2019-01-31T03:27:32.828Z,-5.40
2019-01-31T03:30:35.125Z,-5.40
2019-01-31T03:33:08.193Z,-5.50
2019-01-31T03:36:00.925Z,-5.60
2019-01-31T03:38:33.790Z,-5.60
2019-01-31T03:41:09.925Z,-5.50
2019-01-31T03:43:58.494Z,-5.50
2019-01-31T03:46:40.902Z,-5.60
2019-01-31T03:49:13.965Z,-5.60
2019-01-31T03:51:46.891Z,-5.60
2019-01-31T03:54:23.300Z,-5.60
2019-01-31T03:56:59.159Z,-5.60
2019-01-31T03:59:28.508Z,-5.70
2019-01-31T04:02:01.630Z,-5.80
2019-01-31T04:04:46.816Z,-5.80
2019-01-31T04:07:13.061Z,-5.90
2019-01-31T04:09:39.418Z,-5.90
2019-01-31T04:12:05.886Z,-5.90
2019-01-31T04:14:32.665Z,-6.00
2019-01-31T04:16:59.017Z,-5.90
2019-01-31T04:19:25.530Z,-5.90
2019-01-31T04:21:52.029Z,-5.90
2019-01-31T04:24:18.320Z,-5.90
2019-01-31T04:26:44.698Z,-5.90
2019-01-31T04:29:11.038Z,-6.00
2019-01-31T04:31:37.550Z,-6.00
2019-01-31T04:34:03.969Z,-6.00
2019-01-31T04:36:30.451Z,-6.10
2019-01-31T04:38:56.958Z,-6.10
2019-01-31T04:41:23.322Z,-6.10
2019-01-31T04:43:50.195Z,-6.20
2019-01-31T04:46:19.151Z,-6.20
2019-01-31T04:48:47.872Z,-6.30
2019-01-31T04:51:14.322Z,-6.30
2019-01-31T04:53:41.823Z,-6.30
2019-01-31T04:56:08.176Z,-6.30
2019-01-31T04:58:34.445Z,-6.30
2019-01-31T05:01:02.760Z,-6.40
2019-01-31T05:03:29.562Z,-6.50
2019-01-31T05:05:56.499Z,-6.50
2019-01-31T05:08:22.862Z,-6.50
2019-01-31T05:10:49.294Z,-6.50
2019-01-31T05:13:15.756Z,-6.50
2019-01-31T05:15:42.184Z,-6.50
2019-01-31T05:18:08.671Z,-6.50
2019-01-31T05:20:35.572Z,-6.50
2019-01-31T05:23:01.887Z,-6.50
2019-01-31T05:25:28.124Z,-6.40
2019-01-31T05:27:54.812Z,-6.50
2019-01-31T05:30:21.528Z,-6.50
2019-01-31T05:32:48.165Z,-6.60
2019-01-31T05:35:14.786Z,-6.60
2019-01-31T05:37:50.335Z,-6.60
2019-01-31T05:40:16.918Z,-6.50
2019-01-31T05:42:43.319Z,-6.50
2019-01-31T05:45:12.293Z,-6.50
2019-01-31T05:47:38.971Z,-6.50
2019-01-31T05:50:11.180Z,-6.50
2019-01-31T05:52:37.833Z,-6.50
2019-01-31T05:55:05.724Z,-6.50
2019-01-31T05:57:32.281Z,-6.50
2019-01-31T05:59:58.889Z,-6.40
2019-01-31T06:02:25.498Z,-6.40
2019-01-31T06:04:53.871Z,-6.40
2019-01-31T06:07:20.121Z,-6.30
2019-01-31T06:09:46.665Z,-6.30
2019-01-31T06:12:13.181Z,-6.20
2019-01-31T06:14:39.609Z,-6.20
2019-01-31T06:17:06.093Z,-6.20
2019-01-31T06:19:32.607Z,-6.10
2019-01-31T06:21:59.250Z,-6.00
2019-01-31T06:24:25.852Z,-6.00
2019-01-31T06:26:52.673Z,-5.90
2019-01-31T06:29:19.304Z,-5.90
2019-01-31T06:31:45.850Z,-5.90
2019-01-31T06:34:12.362Z,-5.90
2019-01-31T06:36:38.813Z,-5.80
2019-01-31T06:39:06.768Z,-5.80
2019-01-31T06:41:33.320Z,-5.80
2019-01-31T06:43:59.912Z,-5.80
2019-01-31T06:46:26.481Z,-5.70
2019-01-31T06:48:53.035Z,-5.70
2019-01-31T06:51:19.653Z,-5.60
2019-01-31T06:53:45.985Z,-5.60
2019-01-31T06:56:12.543Z,-5.50
2019-01-31T06:58:41.022Z,-5.50
2019-01-31T07:01:07.461Z,-5.50
2019-01-31T07:03:33.991Z,-5.40
2019-01-31T07:06:00.465Z,-5.40
2019-01-31T07:08:27.200Z,-5.40
2019-01-31T07:10:53.677Z,-5.40
2019-01-31T07:13:20.186Z,-5.40
2019-01-31T07:15:46.699Z,-5.40
2019-01-31T07:18:13.373Z,-5.30
2019-01-31T07:20:39.926Z,-5.30
2019-01-31T07:23:06.533Z,-5.20
2019-01-31T07:25:33.088Z,-5.20
2019-01-31T07:27:59.650Z,-5.20
2019-01-31T07:30:26.803Z,-5.10
2019-01-31T07:32:53.477Z,-5.10
2019-01-31T07:35:20.192Z,-5.10
2019-01-31T07:37:48.824Z,-5.00
2019-01-31T07:40:20.289Z,-5.00
2019-01-31T07:42:46.978Z,-4.90
2019-01-31T07:45:25.923Z,-4.80
2019-01-31T07:47:52.435Z,-4.80
2019-01-31T07:50:19.040Z,-4.70
2019-01-31T07:52:45.557Z,-4.70
2019-01-31T07:55:12.162Z,-4.60
2019-01-31T07:57:38.832Z,-4.50
2019-01-31T08:00:11.962Z,-4.50
2019-01-31T08:02:38.626Z,-4.40
2019-01-31T08:05:08.636Z,-4.40
2019-01-31T08:07:35.273Z,-4.30
2019-01-31T08:10:02.072Z,-4.20
2019-01-31T08:12:28.563Z,-4.10
2019-01-31T08:14:55.010Z,-4.00
2019-01-31T08:17:21.663Z,-4.00
2019-01-31T08:19:48.238Z,-3.80
2019-01-31T08:22:14.848Z,-3.80
2019-01-31T08:24:41.169Z,-3.70
2019-01-31T08:27:07.682Z,-3.70
2019-01-31T08:29:34.242Z,-3.70
2019-01-31T08:32:03.054Z,-3.70
2019-01-31T08:34:29.633Z,-3.60
2019-01-31T08:36:56.068Z,-3.60
2019-01-31T08:39:22.538Z,-3.60
2019-01-31T08:41:49.159Z,-3.60
2019-01-31T08:44:15.748Z,-3.50
2019-01-31T08:46:42.201Z,-3.40
2019-01-31T08:49:08.826Z,-3.30
2019-01-31T08:51:35.387Z,-3.30
2019-01-31T08:54:02.053Z,-3.20
2019-01-31T08:56:28.638Z,-3.20
2019-01-31T08:58:55.197Z,-3.20
2019-01-31T09:01:21.720Z,-3.10
2019-01-31T09:03:48.265Z,-3.00
2019-01-31T09:06:15.106Z,-3.00
2019-01-31T09:08:41.704Z,-3.00
2019-01-31T09:11:08.297Z,-2.90
2019-01-31T09:13:34.758Z,-2.80
2019-01-31T09:16:01.316Z,-2.80
2019-01-31T09:18:28.040Z,-2.70
2019-01-31T09:21:04.073Z,-2.60
2019-01-31T09:23:37.170Z,-2.60
2019-01-31T09:26:16.702Z,-2.60
2019-01-31T09:29:07.600Z,-2.50
2019-01-31T09:32:12.833Z,-2.50
2019-01-31T09:34:48.476Z,-2.40
2019-01-31T09:37:18.621Z,-2.40
2019-01-31T09:39:57.741Z,-2.30
2019-01-31T09:42:27.882Z,-2.30
2019-01-31T09:45:17.133Z,-2.20
2019-01-31T09:47:50.287Z,-2.10
2019-01-31T09:50:43.308Z,-2.10
2019-01-31T09:53:28.532Z,-2.00
2019-01-31T09:56:19.657Z,-1.80
2019-01-31T09:59:02.065Z,-1.80
2019-01-31T10:01:52.528Z,-1.70
2019-01-31T10:04:31.872Z,-1.70
2019-01-31T10:07:08.007Z,-1.60
2019-01-31T10:09:50.415Z,-1.50
2019-01-31T10:12:38.343Z,-1.30
2019-01-31T10:15:31.917Z,-1.00
2019-01-31T10:18:04.890Z,-0.60
2019-01-31T10:21:02.505Z,-0.50
2019-01-31T10:23:41.838Z,-0.50
2019-01-31T10:26:18.064Z,-0.60
2019-01-31T10:29:05.023Z,-0.30
2019-01-31T10:31:38.144Z,0.00
2019-01-31T10:34:08.352Z,0.20
2019-01-31T10:36:50.875Z,0.40
2019-01-31T10:39:24.118Z,0.70
2019-01-31T10:42:09.405Z,0.90
2019-01-31T10:44:56.421Z,0.90
2019-01-31T10:47:44.814Z,0.80
2019-01-31T10:50:30.075Z,1.00
2019-01-31T10:53:09.430Z,0.90
2019-01-31T10:55:56.242Z,1.10
2019-01-31T10:58:32.478Z,1.30
2019-01-31T11:01:02.673Z,1.40
2019-01-31T11:03:32.849Z,1.60
2019-01-31T11:06:11.921Z,1.50
2019-01-31T11:08:57.243Z,1.50
2019-01-31T11:12:01.163Z,1.50
2019-01-31T11:14:31.357Z,1.30
2019-01-31T11:17:10.779Z,1.20
2019-01-31T11:19:40.950Z,1.20
2019-01-31T11:22:27.492Z,1.30
2019-01-31T11:25:00.640Z,1.60
2019-01-31T11:28:06.161Z,1.70
2019-01-31T11:30:57.984Z,1.80
2019-01-31T11:33:45.124Z,2.10
2019-01-31T11:36:41.154Z,2.30
2019-01-31T11:39:34.244Z,2.40
2019-01-31T11:42:09.441Z,2.40
2019-01-31T11:45:03.812Z,2.40
2019-01-31T11:47:52.534Z,2.40
2019-01-31T11:50:25.736Z,2.40
2019-01-31T11:53:01.991Z,2.30
2019-01-31T11:55:38.320Z,2.20
2019-01-31T11:58:14.377Z,2.20
2019-01-31T12:00:40.844Z,2.10
2019-01-31T12:03:07.541Z,2.10
2019-01-31T12:05:34.260Z,2.20
2019-01-31T12:08:00.802Z,2.30
2019-01-31T12:10:27.364Z,2.30
2019-01-31T12:12:54.256Z,2.30
2019-01-31T12:15:20.824Z,2.30
2019-01-31T12:17:47.368Z,2.30
2019-01-31T12:20:15.468Z,2.20
2019-01-31T12:22:42.145Z,2.20
2019-01-31T12:25:08.719Z,2.20
2019-01-31T12:27:35.316Z,2.20
2019-01-31T12:30:01.979Z,2.10
2019-01-31T12:32:28.545Z,2.10
2019-01-31T12:34:55.064Z,2.10
2019-01-31T12:37:21.621Z,2.00
2019-01-31T12:39:48.237Z,1.90
2019-01-31T12:42:24.884Z,2.00
2019-01-31T12:44:51.352Z,2.10
2019-01-31T12:47:17.816Z,2.10
2019-01-31T12:49:44.426Z,2.10
2019-01-31T12:52:11.123Z,2.10
2019-01-31T12:54:37.721Z,2.00
2019-01-31T12:57:04.592Z,1.90
2019-01-31T12:59:31.388Z,1.90
2019-01-31T13:01:57.882Z,2.00
2019-01-31T13:04:24.558Z,2.10
2019-01-31T13:06:51.079Z,2.10
2019-01-31T13:09:17.582Z,2.10
2019-01-31T13:11:44.169Z,2.20
2019-01-31T13:14:10.821Z,2.30
2019-01-31T13:16:37.389Z,2.30
2019-01-31T13:19:04.315Z,2.40
2019-01-31T13:21:30.991Z,2.40
2019-01-31T13:23:57.581Z,2.40
2019-01-31T13:26:24.167Z,2.30
2019-01-31T13:28:50.791Z,2.40
2019-01-31T13:31:17.584Z,2.40
2019-01-31T13:33:46.618Z,2.40
2019-01-31T13:36:13.253Z,2.40
2019-01-31T13:38:39.774Z,2.30
2019-01-31T13:41:06.497Z,2.20
2019-01-31T13:43:33.103Z,2.10
2019-01-31T13:45:59.753Z,2.10
2019-01-31T13:48:26.316Z,2.20
2019-01-31T13:50:52.957Z,2.30
2019-01-31T13:53:19.624Z,2.30
2019-01-31T13:55:46.222Z,2.30
2019-01-31T13:58:12.855Z,2.30
2019-01-31T14:00:39.419Z,2.30
2019-01-31T14:03:06.054Z,2.40
2019-01-31T14:05:33.162Z,2.40
2019-01-31T14:07:59.726Z,2.30
2019-01-31T14:10:26.297Z,2.40
2019-01-31T14:12:52.887Z,2.40
2019-01-31T14:15:33.798Z,2.50
2019-01-31T14:18:08.294Z,2.50
2019-01-31T14:20:34.929Z,2.50
2019-01-31T14:23:01.585Z,2.50
2019-01-31T14:25:28.063Z,2.50
2019-01-31T14:27:54.808Z,2.50
2019-01-31T14:30:29.797Z,2.60
2019-01-31T14:32:56.961Z,2.60
2019-01-31T14:35:23.625Z,2.60
2019-01-31T14:37:50.294Z,2.70
2019-01-31T14:40:17.024Z,2.70
2019-01-31T14:42:43.590Z,2.70
2019-01-31T14:45:12.642Z,2.70
2019-01-31T14:47:39.278Z,2.80
2019-01-31T14:50:09.484Z,2.80
2019-01-31T14:52:36.186Z,2.80
2019-01-31T14:55:05.331Z,2.80
2019-01-31T14:57:31.896Z,2.70
2019-01-31T14:59:58.633Z,2.70
2019-01-31T15:02:25.276Z,2.60
2019-01-31T15:04:51.864Z,2.60
2019-01-31T15:07:18.504Z,2.50
2019-01-31T15:09:45.180Z,2.40
2019-01-31T15:12:11.722Z,2.40
2019-01-31T15:14:38.170Z,2.30
2019-01-31T15:17:04.689Z,2.20
2019-01-31T15:19:31.284Z,2.20
2019-01-31T15:21:57.807Z,2.10
2019-01-31T15:24:24.305Z,2.10
2019-01-31T15:26:50.845Z,2.00
2019-01-31T15:29:17.441Z,2.00
2019-01-31T15:31:44.023Z,1.90
2019-01-31T15:34:10.591Z,1.90
2019-01-31T15:36:37.169Z,1.80
2019-01-31T15:39:06.260Z,1.80
2019-01-31T15:41:32.809Z,1.70
2019-01-31T15:43:59.338Z,1.70
2019-01-31T15:46:26.034Z,1.70
2019-01-31T15:49:00.897Z,1.60
2019-01-31T15:51:27.597Z,1.60
2019-01-31T15:53:54.168Z,1.50
2019-01-31T15:56:20.663Z,1.50
2019-01-31T15:58:47.425Z,1.50
2019-01-31T16:01:14.266Z,1.40
2019-01-31T16:03:40.818Z,1.30
2019-01-31T16:06:07.411Z,1.30
2019-01-31T16:08:33.873Z,1.30
2019-01-31T16:11:00.506Z,1.30
2019-01-31T16:13:26.914Z,1.20
2019-01-31T16:15:53.499Z,1.20
2019-01-31T16:18:20.069Z,1.10
2019-01-31T16:20:46.635Z,1.10
2019-01-31T16:23:13.571Z,1.10
2019-01-31T16:25:40.231Z,1.00
2019-01-31T16:28:06.781Z,1.00
2019-01-31T16:30:33.326Z,1.00
2019-01-31T16:32:59.866Z,0.90
2019-01-31T16:35:26.392Z,0.90
2019-01-31T16:37:58.867Z,0.90
2019-01-31T16:40:25.664Z,0.90
2019-01-31T16:42:52.223Z,0.90
2019-01-31T16:45:18.890Z,0.80
2019-01-31T16:47:45.513Z,0.80
2019-01-31T16:50:15.677Z,0.80
2019-01-31T16:52:42.514Z,0.80
2019-01-31T16:55:15.369Z,0.70
2019-01-31T16:57:42.260Z,0.70
2019-01-31T17:00:15.375Z,0.70
2019-01-31T17:02:42.008Z,0.70
2019-01-31T17:05:12.191Z,0.70
2019-01-31T17:07:38.897Z,0.70
2019-01-31T17:10:05.770Z,0.70
2019-01-31T17:12:32.294Z,0.60
2019-01-31T17:14:58.926Z,0.60
2019-01-31T17:17:25.703Z,0.50
2019-01-31T17:19:52.296Z,0.50
2019-01-31T17:22:18.748Z,0.40
2019-01-31T17:24:45.337Z,0.40
2019-01-31T17:27:11.900Z,0.40
2019-01-31T17:29:38.508Z,0.40
2019-01-31T17:32:05.047Z,0.40
2019-01-31T17:34:37.433Z,0.40
2019-01-31T17:37:03.996Z,0.30
2019-01-31T17:39:30.707Z,0.30
2019-01-31T17:41:57.163Z,0.30
2019-01-31T17:44:24.674Z,0.30
2019-01-31T17:46:51.235Z,0.30
2019-01-31T17:49:17.935Z,0.30
2019-01-31T17:51:44.471Z,0.30
2019-01-31T17:54:11.086Z,0.30
2019-01-31T17:56:37.650Z,0.20
2019-01-31T17:59:04.250Z,0.20
2019-01-31T18:01:30.939Z,0.20
2019-01-31T18:03:57.465Z,0.20
2019-01-31T18:06:24.241Z,0.20
2019-01-31T18:08:50.788Z,0.30
2019-01-31T18:11:17.411Z,0.30
2019-01-31T18:13:44.107Z,0.20
2019-01-31T18:16:10.666Z,0.20
2019-01-31T18:18:37.194Z,0.20
2019-01-31T18:21:04.333Z,0.20
2019-01-31T18:23:30.815Z,0.10
2019-01-31T18:25:57.349Z,0.20
2019-01-31T18:28:23.927Z,0.10
2019-01-31T18:30:50.464Z,0.10
2019-01-31T18:33:17.135Z,0.10
2019-01-31T18:35:43.481Z,0.10
2019-01-31T18:38:10.044Z,0.10
2019-01-31T18:40:36.648Z,0.10
2019-01-31T18:43:03.357Z,0.10
2019-01-31T18:45:35.995Z,0.10
2019-01-31T18:48:03.902Z,0.10
2019-01-31T18:50:33.143Z,0.10
2019-01-31T18:52:59.865Z,0.10
2019-01-31T18:55:27.206Z,0.10
2019-01-31T18:57:53.800Z,0.10
2019-01-31T19:00:35.412Z,0.10
2019-01-31T19:03:02.177Z,0.10
2019-01-31T19:05:29.854Z,0.10
2019-01-31T19:07:56.522Z,0.10
2019-01-31T19:10:23.127Z,0.10
2019-01-31T19:12:49.700Z,0.10
2019-01-31T19:15:20.565Z,0.20
2019-01-31T19:17:47.141Z,0.20
2019-01-31T19:20:25.007Z,0.20
2019-01-31T19:22:59.289Z,0.20
2019-01-31T19:25:26.002Z,0.20
2019-01-31T19:27:52.529Z,0.20
2019-01-31T19:30:22.829Z,0.20
2019-01-31T19:32:49.403Z,0.10
2019-01-31T19:35:16.192Z,0.10
2019-01-31T19:37:42.805Z,0.10
2019-01-31T19:40:21.080Z,0.10
2019-01-31T19:42:47.760Z,0.10
2019-01-31T19:45:25.993Z,0.10
2019-01-31T19:47:52.866Z,0.10
2019-01-31T19:50:19.401Z,0.10
2019-01-31T19:52:46.058Z,0.10
2019-01-31T19:55:12.769Z,0.20
2019-01-31T19:57:39.203Z,0.20
2019-01-31T20:00:12.912Z,0.20
2019-01-31T20:02:39.376Z,0.20
2019-01-31T20:05:06.100Z,0.20
2019-01-31T20:07:32.699Z,0.20
2019-01-31T20:09:59.308Z,0.20
2019-01-31T20:12:25.931Z,0.20
2019-01-31T20:14:52.498Z,0.20
2019-01-31T20:17:19.056Z,0.20
2019-01-31T20:19:45.757Z,0.20
2019-01-31T20:22:12.548Z,0.20
2019-01-31T20:24:39.127Z,0.20
2019-01-31T20:27:05.849Z,0.20
2019-01-31T20:29:32.523Z,0.20
2019-01-31T20:31:59.086Z,0.20
2019-01-31T20:34:25.794Z,0.20
2019-01-31T20:36:52.342Z,0.20
2019-01-31T20:39:18.951Z,0.20
2019-01-31T20:41:53.857Z,0.20
2019-01-31T20:44:13.932Z,0.20
2019-01-31T20:46:40.549Z,0.20
2019-01-31T20:49:07.297Z,0.20
2019-01-31T20:51:33.877Z,0.20
2019-01-31T20:54:00.367Z,0.20
2019-01-31T20:56:26.852Z,0.20
2019-01-31T20:58:53.441Z,0.20
2019-01-31T21:01:20.047Z,0.20
2019-01-31T21:03:49.385Z,0.20
2019-01-31T21:06:15.062Z,0.20
2019-01-31T21:08:41.707Z,0.10
2019-01-31T21:11:08.258Z,0.20
2019-01-31T21:13:34.829Z,0.20
2019-01-31T21:16:01.386Z,0.20
2019-01-31T21:18:28.007Z,0.20
2019-01-31T21:20:54.605Z,0.10
2019-01-31T21:23:21.197Z,0.20
2019-01-31T21:25:47.911Z,0.10
2019-01-31T21:28:14.730Z,0.10
2019-01-31T21:30:41.512Z,0.10
2019-01-31T21:33:08.379Z,0.10
2019-01-31T21:35:35.100Z,0.10
2019-01-31T21:38:01.790Z,0.10
2019-01-31T21:40:32.984Z,0.20
2019-01-31T21:42:59.731Z,0.20
2019-01-31T21:45:26.362Z,0.20
2019-01-31T21:47:53.152Z,0.20
2019-01-31T21:50:25.755Z,0.20
2019-01-31T21:52:52.554Z,0.20
2019-01-31T21:55:19.213Z,0.30
2019-01-31T21:57:45.803Z,0.30
2019-01-31T22:00:20.687Z,0.30
2019-01-31T22:02:47.296Z,0.30
2019-01-31T22:05:15.638Z,0.30
2019-01-31T22:07:42.259Z,0.40
2019-01-31T22:10:11.135Z,0.30
2019-01-31T22:12:37.729Z,0.30
2019-01-31T22:15:11.657Z,0.40
2019-01-31T22:17:38.670Z,0.40
2019-01-31T22:20:07.583Z,0.30
2019-01-31T22:22:34.156Z,0.40
2019-01-31T22:25:00.610Z,0.40
2019-01-31T22:27:27.213Z,0.40
2019-01-31T22:29:53.711Z,0.40
2019-01-31T22:32:20.308Z,0.40
2019-01-31T22:34:47.052Z,0.40
2019-01-31T22:37:13.706Z,0.40
2019-01-31T22:39:40.297Z,0.40
2019-01-31T22:42:07.147Z,0.40
2019-01-31T22:44:33.713Z,0.40
2019-01-31T22:47:00.399Z,0.40
2019-01-31T22:49:26.974Z,0.40
2019-01-31T22:51:53.616Z,0.40
2019-01-31T22:54:20.167Z,0.40
2019-01-31T22:56:46.713Z,0.40
2019-01-31T22:59:13.467Z,0.40
2019-01-31T23:01:40.444Z,0.40
2019-01-31T23:04:07.003Z,0.50
2019-01-31T23:06:33.896Z,0.50
2019-01-31T23:09:00.407Z,0.60
2019-01-31T23:11:27.362Z,0.50
2019-01-31T23:13:54.020Z,0.50
2019-01-31T23:16:20.441Z,0.50
2019-01-31T23:18:47.063Z,0.50
2019-01-31T23:21:13.915Z,0.60
2019-01-31T23:23:40.667Z,0.60
2019-01-31T23:26:07.257Z,0.60
2019-01-31T23:28:33.872Z,0.60
2019-01-31T23:31:00.472Z,0.60
2019-01-31T23:33:27.175Z,0.60
2019-01-31T23:35:53.741Z,0.60
2019-01-31T23:38:20.296Z,0.60
2019-01-31T23:40:46.899Z,0.60
2019-01-31T23:43:13.561Z,0.60
2019-01-31T23:45:40.203Z,0.70
2019-01-31T23:48:06.873Z,0.70
2019-01-31T23:50:33.526Z,0.60
2019-01-31T23:53:00.109Z,0.60
2019-01-31T23:55:26.750Z,0.60
2019-01-31T23:57:53.385Z,0.70
